Time;durP1;ratioP1;P1;durP2;ratioP2;P2;SDS_P1;SDS_P2;PMS_P1;PMS_P2;Temp;Humidity;BMP_temperature;BMP_pressure;BME280_temperature;BME280_humidity;BME280_pressure;Samples;Min_cycle;Max_cycle;Signal;HPM_P1;HPM_P2
2023/06/07 00:01:25;;;;;;;3.40;3.10;;;14.50;86.20;;;;;;5108328;27;20667;-70
2023/06/07 00:03:52;;;;;;;4.30;3.43;;;14.50;86.00;;;;;;5113599;27;20724;-70
2023/06/07 00:06:21;;;;;;;3.90;3.50;;;14.50;85.40;;;;;;5116295;27;20655;-70
2023/06/07 00:08:47;;;;;;;3.53;2.40;;;14.40;86.10;;;;;;5108900;27;20622;-69
2023/06/07 00:11:14;;;;;;;3.20;2.93;;;14.40;87.00;;;;;;5115679;27;20736;-70
2023/06/07 00:13:41;;;;;;;3.70;3.33;;;14.30;87.20;;;;;;5116574;27;20625;-70
2023/06/07 00:16:08;;;;;;;3.73;3.40;;;14.40;88.10;;;;;;5120082;27;20655;-70
2023/06/07 00:18:35;;;;;;;4.37;3.93;;;14.20;88.70;;;;;;5111718;27;20631;-70
2023/06/07 00:21:01;;;;;;;3.63;3.33;;;14.10;89.20;;;;;;5108434;27;20640;-70
2023/06/07 00:23:30;;;;;;;3.40;3.10;;;14.10;89.40;;;;;;5115420;27;20666;-70
2023/06/07 00:25:59;;;;;;;3.80;2.70;;;14.10;89.70;;;;;;5116812;27;20647;-70
2023/06/07 00:28:26;;;;;;;4.03;3.53;;;14.10;87.80;;;;;;5113435;27;20710;-70
2023/06/07 00:30:53;;;;;;;3.20;3.00;;;14.20;87.10;;;;;;5101079;27;20670;-70
2023/06/07 00:33:21;;;;;;;4.37;3.00;;;14.10;86.90;;;;;;5111829;27;20632;-70
2023/06/07 00:35:48;;;;;;;5.37;3.50;;;14.10;87.20;;;;;;5118467;27;20682;-70
2023/06/07 00:38:15;;;;;;;3.90;3.60;;;14.10;88.70;;;;;;5103043;27;20634;-70
2023/06/07 00:40:43;;;;;;;4.10;3.70;;;14.00;89.30;;;;;;5118161;27;20663;-70
2023/06/07 00:43:10;;;;;;;4.10;2.80;;;13.90;90.00;;;;;;5111130;27;20679;-70
2023/06/07 00:45:36;;;;;;;4.83;3.70;;;13.80;90.40;;;;;;5121241;27;20648;-71
2023/06/07 00:48:04;;;;;;;3.63;3.37;;;13.60;90.90;;;;;;5110644;27;20624;-70
2023/06/07 00:50:31;;;;;;;4.00;3.60;;;13.50;91.60;;;;;;5115072;27;21002;-70
2023/06/07 00:52:58;;;;;;;3.80;3.50;;;13.50;91.80;;;;;;5111331;27;20729;-70
2023/06/07 00:55:25;;;;;;;4.50;4.10;;;13.50;92.40;;;;;;5109927;27;20645;-70
2023/06/07 00:57:54;;;;;;;4.83;3.33;;;13.40;92.20;;;;;;5110606;27;21184;-71
2023/06/07 01:00:21;;;;;;;4.90;4.10;;;13.50;92.30;;;;;;5098981;28;20625;-70
2023/06/07 01:02:49;;;;;;;5.30;4.37;;;13.30;92.30;;;;;;5117480;27;21638;-70
2023/06/07 01:05:17;;;;;;;4.10;3.70;;;13.30;92.80;;;;;;5111021;27;20615;-70
2023/06/07 01:07:48;;;;;;;3.63;3.33;;;13.30;92.70;;;;;;5106284;28;21022;-70
2023/06/07 01:10:16;;;;;;;4.20;3.60;;;13.30;92.90;;;;;;5110024;28;20629;-70
2023/06/07 01:12:45;;;;;;;3.73;3.43;;;13.30;93.00;;;;;;5115212;27;20974;-70
2023/06/07 01:15:13;;;;;;;4.80;3.20;;;13.30;92.90;;;;;;5112587;28;20746;-70
2023/06/07 01:17:44;;;;;;;4.67;4.20;;;13.30;92.90;;;;;;5126505;27;20726;-70
2023/06/07 01:20:16;;;;;;;5.10;4.20;;;13.30;92.30;;;;;;5116841;27;20628;-70
2023/06/07 01:22:46;;;;;;;3.50;3.20;;;13.40;92.20;;;;;;5115004;27;21081;-70
2023/06/07 01:25:16;;;;;;;14.70;6.00;;;13.40;92.10;;;;;;5119220;27;20615;-71
2023/06/07 01:27:46;;;;;;;4.70;4.30;;;13.40;91.90;;;;;;5117119;27;20722;-71
2023/06/07 01:30:15;;;;;;;5.70;3.77;;;13.40;91.90;;;;;;5115695;27;21037;-71
2023/06/07 01:32:44;;;;;;;3.97;3.63;;;13.40;91.60;;;;;;5105869;27;20634;-71
2023/06/07 01:35:13;;;;;;;3.33;3.13;;;13.40;91.60;;;;;;5112261;27;20710;-70
2023/06/07 01:37:41;;;;;;;5.43;4.17;;;13.40;92.20;;;;;;5105226;27;20721;-71
2023/06/07 01:40:11;;;;;;;3.30;3.00;;;13.40;91.50;;;;;;5122490;27;20649;-72
2023/06/07 01:42:39;;;;;;;3.50;3.20;;;13.40;91.50;;;;;;5115343;27;20666;-71
2023/06/07 01:45:09;;;;;;;3.70;3.00;;;13.30;92.30;;;;;;5127085;27;20993;-71
2023/06/07 01:47:37;;;;;;;3.40;3.07;;;13.30;92.70;;;;;;5112532;27;20647;-71
2023/06/07 01:50:08;;;;;;;3.57;3.27;;;13.30;92.80;;;;;;5109036;27;21042;-70
2023/06/07 01:52:35;;;;;;;4.50;3.90;;;13.20;92.70;;;;;;5117427;27;20632;-70
2023/06/07 01:55:05;;;;;;;4.90;3.67;;;13.10;93.00;;;;;;5116921;27;20666;-70
2023/06/07 01:57:45;;;;;;;4.77;4.00;;;13.30;92.60;;;;;;5115785;27;20706;-70
2023/06/07 02:00:20;;;;;;;4.50;3.03;;;13.30;92.60;;;;;;5105304;27;20636;-70
2023/06/07 02:02:54;;;;;;;3.03;2.83;;;13.20;92.90;;;;;;5115274;27;20654;-69
2023/06/07 02:05:35;;;;;;;4.10;3.80;;;13.20;93.50;;;;;;5122210;27;20973;-70
2023/06/07 02:08:07;;;;;;;3.60;2.87;;;12.90;93.90;;;;;;5121863;27;20729;-70
2023/06/07 02:10:35;;;;;;;4.23;3.87;;;12.90;94.40;;;;;;5116124;27;20652;-70
2023/06/07 02:13:05;;;;;;;4.50;3.47;;;12.80;95.00;;;;;;5118489;27;20678;-70
2023/06/07 02:15:32;;;;;;;5.00;3.87;;;12.80;95.50;;;;;;5117390;27;20658;-70
2023/06/07 02:18:01;;;;;;;3.57;3.20;;;12.80;95.90;;;;;;5120156;27;20620;-70
2023/06/07 02:20:28;;;;;;;4.73;4.30;;;12.70;95.50;;;;;;5121242;27;21269;-70
2023/06/07 02:22:56;;;;;;;3.60;3.27;;;12.60;95.50;;;;;;5115243;27;20720;-70
2023/06/07 02:25:24;;;;;;;3.03;2.80;;;12.60;95.70;;;;;;5109033;27;20781;-70
2023/06/07 02:27:52;;;;;;;3.80;3.50;;;12.60;96.10;;;;;;5117601;27;20673;-70
2023/06/07 02:30:21;;;;;;;3.63;3.00;;;12.60;96.40;;;;;;5108560;27;20623;-70
2023/06/07 02:32:49;;;;;;;4.17;3.77;;;12.60;96.20;;;;;;5116282;27;20639;-71
2023/06/07 02:35:18;;;;;;;4.07;3.77;;;12.70;95.50;;;;;;5122496;27;20615;-70
2023/06/07 02:37:48;;;;;;;3.30;3.10;;;12.70;94.40;;;;;;5111203;27;20732;-72
2023/06/07 02:40:16;;;;;;;4.37;4.00;;;12.80;94.30;;;;;;5112459;27;20630;-70
2023/06/07 02:42:44;;;;;;;3.63;3.40;;;12.80;93.90;;;;;;5113399;27;21271;-70
2023/06/07 02:45:12;;;;;;;3.63;3.33;;;12.80;93.80;;;;;;5115022;27;20979;-70
2023/06/07 02:47:41;;;;;;;4.93;4.53;;;12.80;94.20;;;;;;5119673;27;20621;-70
2023/06/07 02:50:10;;;;;;;4.53;4.13;;;12.70;94.70;;;;;;5116334;27;20736;-70
2023/06/07 02:52:37;;;;;;;4.60;4.20;;;12.60;95.10;;;;;;5114901;27;20728;-70
2023/06/07 02:55:05;;;;;;;5.20;3.97;;;12.60;95.30;;;;;;5119530;27;20632;-71
2023/06/07 02:57:33;;;;;;;7.00;4.80;;;12.60;94.60;;;;;;5118484;27;21489;-70
2023/06/07 03:00:01;;;;;;;3.90;3.57;;;12.60;94.20;;;;;;5111041;27;20626;-70
2023/06/07 03:02:29;;;;;;;6.03;4.27;;;12.70;94.70;;;;;;5118338;27;21196;-71
2023/06/07 03:04:58;;;;;;;4.10;3.70;;;12.60;95.00;;;;;;5111904;27;21186;-70
2023/06/07 03:07:25;;;;;;;3.80;3.40;;;12.50;95.30;;;;;;5116508;27;20741;-70
2023/06/07 03:09:53;;;;;;;4.20;3.77;;;12.40;96.00;;;;;;5111943;27;20627;-71
2023/06/07 03:12:21;;;;;;;7.03;4.10;;;12.50;95.80;;;;;;5118035;27;20680;-70
2023/06/07 03:14:48;;;;;;;4.50;4.10;;;12.40;95.50;;;;;;5110481;27;20998;-70
2023/06/07 03:17:17;;;;;;;4.10;3.50;;;12.40;95.70;;;;;;5118648;27;20651;-70
2023/06/07 03:19:44;;;;;;;4.33;3.93;;;12.30;95.90;;;;;;5115167;27;21024;-70
2023/06/07 03:22:13;;;;;;;4.10;3.77;;;12.20;96.30;;;;;;5118346;27;21054;-70
2023/06/07 03:24:39;;;;;;;4.60;4.20;;;12.20;96.50;;;;;;5118095;27;20619;-70
2023/06/07 03:27:08;;;;;;;4.50;4.10;;;12.10;96.90;;;;;;5122350;27;20656;-70
2023/06/07 03:29:35;;;;;;;4.10;3.70;;;12.10;96.90;;;;;;5113330;27;20661;-71
2023/06/07 03:32:02;;;;;;;5.97;4.00;;;12.00;97.70;;;;;;5104610;27;20675;-70
2023/06/07 03:34:29;;;;;;;3.87;3.47;;;12.00;98.00;;;;;;5117133;27;20630;-70
2023/06/07 03:36:56;;;;;;;4.63;4.23;;;12.00;98.10;;;;;;5108617;27;20757;-70
2023/06/07 03:39:24;;;;;;;3.90;3.60;;;11.90;98.20;;;;;;5120471;27;20625;-70
2023/06/07 03:41:51;;;;;;;3.67;3.00;;;12.00;98.20;;;;;;5112399;27;20685;-70
2023/06/07 03:44:18;;;;;;;3.93;3.63;;;12.00;98.40;;;;;;5117253;27;20788;-70
2023/06/07 03:46:45;;;;;;;3.97;3.60;;;12.00;98.80;;;;;;5115010;27;20652;-70
2023/06/07 03:49:12;;;;;;;4.17;3.87;;;12.00;99.10;;;;;;5122892;27;20648;-70
2023/06/07 03:51:39;;;;;;;4.20;3.03;;;12.00;99.40;;;;;;5114183;27;21001;-70
2023/06/07 03:54:06;;;;;;;4.70;4.30;;;12.10;99.60;;;;;;5118062;27;20623;-70
2023/06/07 03:56:34;;;;;;;4.17;3.77;;;12.10;99.60;;;;;;5109667;27;20643;-70
2023/06/07 03:59:01;;;;;;;4.47;4.07;;;12.20;99.30;;;;;;5103512;27;20623;-70
2023/06/07 04:01:28;;;;;;;4.27;3.87;;;12.20;99.30;;;;;;5117052;27;20765;-70
2023/06/07 04:03:55;;;;;;;4.60;4.10;;;12.30;99.30;;;;;;5120416;27;20662;-70
2023/06/07 04:06:24;;;;;;;4.70;4.33;;;12.40;98.50;;;;;;5110858;27;20657;-70
2023/06/07 04:08:52;;;;;;;5.30;4.03;;;12.40;98.80;;;;;;5117456;27;20725;-70
2023/06/07 04:11:19;;;;;;;3.77;3.47;;;12.50;98.00;;;;;;5112837;27;20655;-70
2023/06/07 04:13:47;;;;;;;3.63;3.33;;;12.50;97.50;;;;;;5116249;27;20612;-70
2023/06/07 04:16:14;;;;;;;3.57;3.27;;;12.60;97.70;;;;;;5120771;27;20648;-70
2023/06/07 04:18:40;;;;;;;4.77;4.17;;;12.70;97.80;;;;;;5119686;27;20711;-70
2023/06/07 04:21:07;;;;;;;4.50;3.87;;;12.70;98.20;;;;;;5116184;27;21332;-70
2023/06/07 04:23:34;;;;;;;4.73;4.20;;;12.60;98.20;;;;;;5117515;27;21312;-70
2023/06/07 04:26:05;;;;;;;4.23;3.90;;;12.60;98.70;;;;;;5117859;27;20662;-70
2023/06/07 04:28:32;;;;;;;3.80;3.17;;;12.60;98.80;;;;;;5109747;27;20692;-70
2023/06/07 04:31:00;;;;;;;4.17;3.87;;;12.60;98.70;;;;;;5119123;27;20708;-70
2023/06/07 04:33:28;;;;;;;4.40;4.00;;;12.60;99.00;;;;;;5112897;27;20631;-70
2023/06/07 04:35:57;;;;;;;5.30;3.90;;;12.70;99.20;;;;;;5105205;27;20704;-70
2023/06/07 04:38:25;;;;;;;4.83;4.33;;;12.80;99.40;;;;;;5106282;27;20732;-71
2023/06/07 04:40:52;;;;;;;5.90;4.50;;;12.90;99.10;;;;;;5113546;27;20680;-70
2023/06/07 04:43:20;;;;;;;4.93;4.37;;;13.00;99.20;;;;;;5111439;27;20669;-71
2023/06/07 04:45:54;;;;;;;4.63;4.20;;;13.10;99.10;;;;;;5119697;27;20650;-71
2023/06/07 04:48:23;;;;;;;6.60;4.93;;;13.20;98.90;;;;;;5111708;27;20619;-71
2023/06/07 04:50:51;;;;;;;6.03;3.70;;;13.50;98.50;;;;;;5115558;27;21311;-71
2023/06/07 04:53:19;;;;;;;4.00;3.70;;;13.70;97.50;;;;;;5111314;27;20715;-70
2023/06/07 04:55:47;;;;;;;5.50;5.00;;;13.90;96.90;;;;;;5113062;27;20916;-71
2023/06/07 04:58:16;;;;;;;4.60;4.20;;;14.00;96.70;;;;;;5107539;27;20635;-71
2023/06/07 05:00:43;;;;;;;4.57;4.17;;;14.10;96.50;;;;;;5115585;27;20672;-70
2023/06/07 05:03:21;;;;;;;6.93;5.00;;;14.20;95.90;;;;;;5110898;27;20652;-71
2023/06/07 05:05:50;;;;;;;4.47;4.07;;;14.30;95.30;;;;;;5103337;28;20647;-71
2023/06/07 05:08:17;;;;;;;5.20;4.07;;;14.40;95.00;;;;;;5114385;28;20808;-71
2023/06/07 05:10:44;;;;;;;6.23;5.43;;;14.40;94.90;;;;;;5105639;28;21033;-71
2023/06/07 05:13:14;;;;;;;4.77;4.30;;;14.50;95.20;;;;;;5116441;28;20815;-71
2023/06/07 05:15:41;;;;;;;4.50;4.10;;;14.60;95.10;;;;;;5114752;27;21501;-71
2023/06/07 05:18:09;;;;;;;4.80;4.40;;;14.50;95.00;;;;;;5108086;28;20637;-71
2023/06/07 05:20:36;;;;;;;3.80;3.50;;;14.70;95.20;;;;;;5112272;28;20652;-70
2023/06/07 05:23:04;;;;;;;4.77;4.00;;;14.80;94.80;;;;;;5114989;28;20635;-70
2023/06/07 05:25:32;;;;;;;5.00;4.60;;;14.80;94.80;;;;;;5112380;28;20654;-70
2023/06/07 05:27:58;;;;;;;5.00;3.93;;;14.70;95.40;;;;;;5110906;28;20625;-69
2023/06/07 05:30:25;;;;;;;4.30;3.80;;;14.70;95.40;;;;;;5109715;28;20653;-70
2023/06/07 05:32:52;;;;;;;5.03;4.63;;;14.70;95.60;;;;;;5111157;28;20626;-70
2023/06/07 05:35:19;;;;;;;5.87;5.27;;;15.00;95.80;;;;;;5113220;28;20630;-70
2023/06/07 05:37:47;;;;;;;4.97;4.50;;;14.90;95.40;;;;;;5100711;28;20698;-69
2023/06/07 05:40:18;;;;;;;4.60;4.20;;;15.20;94.90;;;;;;5102230;28;20691;-68
2023/06/07 05:42:45;;;;;;;5.17;4.73;;;15.30;94.40;;;;;;5113635;28;20637;-68
2023/06/07 05:45:12;;;;;;;4.33;3.93;;;15.30;94.50;;;;;;5102433;28;20718;-68
2023/06/07 05:47:40;;;;;;;7.17;3.90;;;15.50;94.20;;;;;;5116607;28;20617;-68
2023/06/07 05:50:09;;;;;;;4.90;4.40;;;15.40;93.70;;;;;;5101549;28;20615;-69
2023/06/07 05:52:36;;;;;;;5.40;4.90;;;15.50;93.70;;;;;;5108933;28;20629;-69
2023/06/07 05:55:03;;;;;;;4.30;3.90;;;15.70;93.90;;;;;;5112591;28;20621;-69
2023/06/07 05:57:31;;;;;;;5.10;4.70;;;15.70;93.40;;;;;;5117388;27;20624;-69
2023/06/07 05:59:58;;;;;;;5.80;5.00;;;15.80;93.50;;;;;;5108450;28;20618;-69
2023/06/07 06:02:28;;;;;;;5.57;4.73;;;15.80;93.50;;;;;;5116856;27;20665;-69
2023/06/07 06:04:55;;;;;;;6.07;4.73;;;15.80;93.70;;;;;;5113660;27;21256;-68
2023/06/07 06:07:22;;;;;;;6.00;4.43;;;15.80;94.00;;;;;;5114674;27;20698;-69
2023/06/07 06:09:48;;;;;;;4.70;4.30;;;15.80;94.20;;;;;;5101727;27;20620;-70
2023/06/07 06:12:16;;;;;;;5.10;4.60;;;15.70;94.20;;;;;;5109210;27;20649;-69
2023/06/07 06:14:44;;;;;;;4.10;3.80;;;15.60;94.20;;;;;;5106685;27;20710;-69
2023/06/07 06:17:10;;;;;;;7.50;4.30;;;15.60;94.20;;;;;;5121131;27;20649;-70
2023/06/07 06:19:37;;;;;;;4.70;4.20;;;15.70;94.30;;;;;;5114382;27;20639;-69
2023/06/07 06:22:04;;;;;;;5.60;4.70;;;15.70;94.40;;;;;;5115823;27;20656;-69
2023/06/07 06:24:31;;;;;;;5.53;4.43;;;15.90;94.10;;;;;;5119765;27;20668;-70
2023/06/07 06:26:58;;;;;;;5.60;5.00;;;15.90;93.80;;;;;;5118048;27;20681;-70
2023/06/07 06:29:24;;;;;;;5.63;5.00;;;16.10;93.80;;;;;;5116143;27;20630;-68
2023/06/07 06:31:52;;;;;;;4.80;4.40;;;16.20;93.40;;;;;;5118684;27;20672;-69
2023/06/07 06:34:19;;;;;;;4.23;3.93;;;16.30;93.30;;;;;;5112163;27;20635;-70
2023/06/07 06:36:48;;;;;;;4.40;4.10;;;16.50;93.20;;;;;;5116143;27;21232;-69
2023/06/07 06:39:15;;;;;;;4.53;4.13;;;16.70;93.00;;;;;;5113685;27;20623;-69
2023/06/07 06:41:42;;;;;;;5.97;5.37;;;16.40;92.60;;;;;;5103797;27;20685;-69
2023/06/07 06:44:09;;;;;;;4.43;4.03;;;16.60;93.30;;;;;;5114959;27;20655;-70
2023/06/07 06:46:36;;;;;;;5.90;5.37;;;16.60;93.10;;;;;;5123887;27;20657;-69
2023/06/07 06:49:04;;;;;;;5.13;4.50;;;16.60;93.20;;;;;;5112809;27;20620;-69
2023/06/07 06:51:31;;;;;;;5.90;5.10;;;16.80;92.90;;;;;;5122090;27;20649;-69
2023/06/07 06:53:58;;;;;;;6.17;4.80;;;16.80;92.50;;;;;;5109156;27;20634;-69
2023/06/07 06:56:25;;;;;;;4.27;3.97;;;16.70;92.60;;;;;;5115432;27;20662;-69
2023/06/07 06:58:52;;;;;;;5.67;4.77;;;16.70;92.90;;;;;;5113821;27;20630;-69
2023/06/07 07:01:19;;;;;;;4.82;4.32;;;16.80;92.80;;;;;;5121571;27;20754;-69
2023/06/07 07:03:46;;;;;;;4.90;4.37;;;16.90;92.40;;;;;;5118014;27;20217;-69
2023/06/07 07:06:16;;;;;;;4.27;3.60;;;17.30;92.90;;;;;;5119052;27;20651;-69
2023/06/07 07:08:44;;;;;;;5.00;4.30;;;17.30;91.80;;;;;;5115214;27;20628;-69
2023/06/07 07:11:11;;;;;;;4.47;3.67;;;17.30;91.90;;;;;;5104129;27;20677;-69
2023/06/07 07:13:38;;;;;;;4.80;4.30;;;17.30;91.60;;;;;;5118311;27;20623;-69
2023/06/07 07:16:05;;;;;;;3.60;3.30;;;17.40;91.20;;;;;;5120653;27;20650;-72
2023/06/07 07:18:32;;;;;;;3.73;3.30;;;17.30;91.50;;;;;;5116825;27;21075;-72
2023/06/07 07:20:59;;;;;;;4.17;3.87;;;17.50;91.50;;;;;;5109017;27;20646;-72
2023/06/07 07:23:27;;;;;;;3.40;3.10;;;17.50;91.30;;;;;;5108250;27;21191;-69
2023/06/07 07:25:54;;;;;;;4.50;4.13;;;17.70;91.40;;;;;;5117407;27;20766;-69
2023/06/07 07:28:21;;;;;;;4.20;3.80;;;17.70;91.20;;;;;;5123071;27;21100;-70
2023/06/07 07:30:47;;;;;;;4.80;4.40;;;17.80;90.90;;;;;;5115890;27;20755;-69
2023/06/07 07:33:14;;;;;;;3.97;3.60;;;17.70;90.70;;;;;;5116820;27;20626;-70
2023/06/07 07:35:41;;;;;;;6.05;4.85;;;17.80;90.80;;;;;;5115708;27;20742;-69
2023/06/07 07:38:08;;;;;;;3.40;3.10;;;17.80;91.00;;;;;;5115510;27;20270;-69
2023/06/07 07:40:36;;;;;;;4.43;3.90;;;17.90;90.50;;;;;;5106538;27;21012;-70
2023/06/07 07:43:03;;;;;;;4.17;3.83;;;18.20;90.00;;;;;;5106788;27;20640;-73
2023/06/07 07:45:30;;;;;;;4.60;3.80;;;18.10;89.80;;;;;;5115489;27;20675;-70
2023/06/07 07:47:56;;;;;;;4.57;2.80;;;18.10;89.80;;;;;;5108163;27;20627;-70
2023/06/07 07:50:24;;;;;;;3.40;3.10;;;18.10;89.90;;;;;;5118955;27;20651;-70
2023/06/07 07:52:53;;;;;;;3.57;3.27;;;18.30;89.30;;;;;;5120617;27;20622;-70
2023/06/07 07:55:21;;;;;;;3.73;3.43;;;18.70;88.30;;;;;;5116229;27;20684;-70
2023/06/07 07:57:49;;;;;;;3.83;2.87;;;19.00;87.10;;;;;;5119974;27;20949;-69
2023/06/07 08:00:17;;;;;;;3.88;3.58;;;19.20;86.90;;;;;;5095650;27;21289;-70
2023/06/07 08:02:44;;;;;;;2.70;2.50;;;19.40;86.60;;;;;;5117387;27;20229;-70
2023/06/07 08:05:11;;;;;;;3.63;3.33;;;19.60;85.50;;;;;;5116591;27;20650;-71
2023/06/07 08:07:39;;;;;;;3.60;3.03;;;19.80;84.40;;;;;;5117277;27;20616;-70
2023/06/07 08:10:08;;;;;;;4.20;3.20;;;19.90;84.50;;;;;;5115895;27;20634;-70
2023/06/07 08:12:35;;;;;;;3.00;2.80;;;20.00;82.50;;;;;;5116541;27;20683;-70
2023/06/07 08:15:03;;;;;;;3.83;3.27;;;19.60;83.90;;;;;;5116041;27;20612;-70
2023/06/07 08:17:30;;;;;;;3.20;2.83;;;19.80;84.50;;;;;;5117571;27;20725;-70
2023/06/07 08:19:57;;;;;;;2.60;2.40;;;19.90;82.50;;;;;;5107012;27;20618;-71
2023/06/07 08:22:24;;;;;;;3.67;2.43;;;19.80;80.20;;;;;;5116290;27;21228;-71
2023/06/07 08:24:51;;;;;;;2.40;2.20;;;19.50;81.10;;;;;;5119021;27;20699;-70
2023/06/07 08:27:21;;;;;;;2.20;2.00;;;19.30;81.00;;;;;;5110073;27;20650;-70
2023/06/07 08:29:48;;;;;;;2.57;2.37;;;19.30;81.70;;;;;;5111987;27;20648;-70
2023/06/07 08:32:16;;;;;;;2.03;1.90;;;19.60;81.80;;;;;;5099013;27;20661;-71
2023/06/07 08:34:43;;;;;;;2.87;2.67;;;19.80;81.50;;;;;;5112330;27;20628;-71
2023/06/07 08:37:10;;;;;;;2.67;2.47;;;19.60;79.80;;;;;;5107171;27;20696;-71
2023/06/07 08:39:37;;;;;;;2.40;2.20;;;19.50;80.40;;;;;;5119352;27;20658;-71
2023/06/07 08:42:07;;;;;;;2.93;2.73;;;19.40;79.80;;;;;;5102727;27;20641;-71
2023/06/07 08:44:34;;;;;;;2.40;2.13;;;19.20;80.30;;;;;;5118586;27;20672;-68
2023/06/07 08:47:01;;;;;;;2.30;2.20;;;19.00;81.20;;;;;;5114300;27;20655;-68
2023/06/07 08:49:34;;;;;;;2.07;1.97;;;19.00;81.00;;;;;;5105201;28;21237;-68
2023/06/07 08:52:03;;;;;;;1.90;1.80;;;19.50;81.00;;;;;;5114855;27;20655;-68
2023/06/07 08:54:31;;;;;;;2.40;2.20;;;19.90;79.10;;;;;;5108990;27;20627;-68
2023/06/07 08:56:58;;;;;;;2.37;2.17;;;20.00;77.50;;;;;;5112594;27;20647;-68
2023/06/07 08:59:26;;;;;;;2.40;2.30;;;20.00;77.20;;;;;;5107632;27;20652;-66
2023/06/07 09:01:53;;;;;;;2.87;2.60;;;20.40;77.20;;;;;;5114432;27;20647;-67
2023/06/07 09:04:20;;;;;;;2.70;2.50;;;20.50;75.20;;;;;;5119245;27;20661;-67
2023/06/07 09:06:48;;;;;;;2.50;2.30;;;20.50;74.80;;;;;;5113584;28;20650;-67
2023/06/07 09:09:15;;;;;;;3.30;2.77;;;20.60;74.30;;;;;;5104077;28;20642;-67
2023/06/07 09:11:42;;;;;;;3.50;3.20;;;20.60;73.10;;;;;;5113078;28;20649;-67
2023/06/07 09:14:10;;;;;;;2.70;2.50;;;20.70;75.00;;;;;;5114152;28;20743;-67
2023/06/07 09:16:53;;;;;;;2.60;2.40;;;21.00;72.00;;;;;;5115582;28;20758;-67
2023/06/07 09:19:31;;;;;;;2.77;2.57;;;21.30;72.70;;;;;;5103163;28;21192;-67
2023/06/07 09:21:59;;;;;;;2.53;2.33;;;21.40;72.00;;;;;;5105825;28;21058;-67
2023/06/07 09:24:30;;;;;;;2.57;2.37;;;21.80;70.70;;;;;;5119451;27;21003;-67
2023/06/07 09:26:57;;;;;;;3.07;2.87;;;22.10;69.40;;;;;;5109295;28;21214;-68
2023/06/07 09:29:27;;;;;;;3.35;3.15;;;22.10;68.60;;;;;;5108716;28;20835;-68
2023/06/07 09:31:55;;;;;;;2.97;2.77;;;22.30;68.20;;;;;;5116782;28;20290;-68
2023/06/07 09:34:23;;;;;;;2.83;2.63;;;22.40;66.90;;;;;;5113661;27;20655;-67
2023/06/07 09:36:54;;;;;;;2.40;2.20;;;22.50;65.70;;;;;;5104553;28;21255;-68
2023/06/07 09:39:25;;;;;;;3.47;3.17;;;22.70;64.40;;;;;;5120946;27;20837;-67
2023/06/07 09:41:52;;;;;;;3.10;2.90;;;22.80;65.70;;;;;;5108260;27;21206;-67
2023/06/07 09:44:23;;;;;;;3.10;2.83;;;23.00;63.40;;;;;;5120578;27;20908;-68
2023/06/07 09:46:53;;;;;;;3.10;2.80;;;23.20;62.80;;;;;;5105243;27;20748;-67
2023/06/07 09:49:26;;;;;;;3.07;2.80;;;23.40;62.50;;;;;;5111320;27;21240;-68
2023/06/07 09:51:53;;;;;;;2.80;2.63;;;23.40;62.30;;;;;;5118291;27;20675;-68
2023/06/07 09:54:39;;;;;;;2.23;2.03;;;23.50;62.30;;;;;;5120679;27;20623;-67
2023/06/07 09:57:10;;;;;;;2.40;2.27;;;23.50;64.20;;;;;;5120761;27;21046;-68
2023/06/07 09:59:37;;;;;;;2.07;1.97;;;23.70;64.40;;;;;;5110732;27;20655;-67
2023/06/07 10:02:23;;;;;;;2.90;2.37;;;23.80;63.20;;;;;;5114818;27;20650;-67
2023/06/07 10:04:50;;;;;;;3.07;2.50;;;23.60;59.90;;;;;;5109252;27;20654;-67
2023/06/07 10:07:19;;;;;;;2.20;2.00;;;23.70;62.20;;;;;;5119663;27;20647;-67
2023/06/07 10:09:48;;;;;;;1.80;1.70;;;23.80;62.00;;;;;;5110241;27;20620;-67
2023/06/07 10:12:17;;;;;;;2.30;2.20;;;23.80;59.00;;;;;;5118643;27;20658;-67
2023/06/07 10:14:46;;;;;;;2.50;2.30;;;23.90;59.70;;;;;;5121090;27;20636;-67
2023/06/07 10:17:15;;;;;;;2.90;2.27;;;24.20;61.30;;;;;;5117879;27;21199;-68
2023/06/07 10:19:44;;;;;;;2.23;2.13;;;24.60;61.50;;;;;;5120247;27;20624;-68
2023/06/07 10:22:15;;;;;;;2.13;1.93;;;24.80;59.60;;;;;;5122000;27;20646;-68
2023/06/07 10:25:02;;;;;;;2.23;2.13;;;25.00;59.20;;;;;;5121759;27;20814;-68
2023/06/07 10:27:39;;;;;;;2.20;2.00;;;25.00;58.20;;;;;;5119468;27;20655;-68
2023/06/07 10:30:10;;;;;;;2.30;2.10;;;25.00;56.90;;;;;;5114501;27;20636;-69
2023/06/07 10:32:38;;;;;;;2.30;2.07;;;24.80;56.70;;;;;;5118950;27;20623;-68
2023/06/07 10:35:08;;;;;;;2.20;1.80;;;24.80;57.00;;;;;;5120380;27;20624;-68
2023/06/07 10:37:36;;;;;;;2.27;2.07;;;24.60;57.00;;;;;;5111327;27;20624;-68
2023/06/07 10:40:10;;;;;;;2.13;2.03;;;24.50;58.40;;;;;;5119285;27;20651;-68
2023/06/07 10:42:37;;;;;;;2.03;1.90;;;23.80;59.30;;;;;;5109107;27;20627;-68
2023/06/07 10:45:05;;;;;;;3.30;2.27;;;24.10;58.70;;;;;;5121051;27;20727;-67
2023/06/07 10:47:34;;;;;;;1.80;1.70;;;24.00;57.50;;;;;;5118025;27;20626;-67
2023/06/07 10:50:01;;;;;;;2.30;2.10;;;24.40;59.00;;;;;;5118216;27;20627;-67
2023/06/07 10:52:27;;;;;;;2.20;2.00;;;24.80;59.20;;;;;;5118506;27;20635;-67
2023/06/07 10:54:55;;;;;;;2.07;1.97;;;25.20;59.70;;;;;;5104751;28;20970;-67
2023/06/07 10:57:37;;;;;;;2.93;2.73;;;25.50;58.80;;;;;;5120420;27;20688;-67
2023/06/07 11:00:28;;;;;;;1.70;1.60;;;25.60;56.90;;;;;;5121237;27;21194;-67
2023/06/07 11:03:33;;;;;;;1.90;1.80;;;25.80;58.10;;;;;;5112762;27;20934;-67
2023/06/07 11:06:09;;;;;;;2.40;2.30;;;26.10;56.50;;;;;;5109067;27;20671;-67
2023/06/07 11:08:37;;;;;;;2.10;1.90;;;26.00;55.20;;;;;;5108730;27;20628;-67
2023/06/07 11:11:21;;;;;;;2.67;2.47;;;26.20;55.00;;;;;;5113960;27;20749;-67
2023/06/07 11:14:11;;;;;;;2.30;2.20;;;26.20;53.30;;;;;;5114805;27;20727;-67
2023/06/07 11:16:39;;;;;;;3.03;2.40;;;26.50;53.90;;;;;;5115660;27;20655;-67
2023/06/07 11:19:11;;;;;;;2.30;2.10;;;26.50;53.70;;;;;;5116492;27;20833;-66
2023/06/07 11:22:04;;;;;;;2.13;2.03;;;26.90;55.10;;;;;;5113140;27;20221;-68
2023/06/07 11:24:31;;;;;;;2.23;2.03;;;27.10;55.20;;;;;;5118381;27;20629;-68
2023/06/07 11:26:58;;;;;;;2.17;2.00;;;26.70;55.40;;;;;;5115390;27;20665;-68
2023/06/07 11:29:28;;;;;;;2.20;2.10;;;26.80;55.40;;;;;;5118877;27;20636;-68
2023/06/07 11:32:00;;;;;;;2.57;2.37;;;26.70;53.70;;;;;;5109304;27;20810;-69
2023/06/07 11:34:29;;;;;;;2.83;2.50;;;27.30;54.30;;;;;;5115012;27;20649;-69
2023/06/07 11:37:16;;;;;;;2.47;2.27;;;27.70;53.20;;;;;;5105536;27;20657;-69
2023/06/07 11:39:45;;;;;;;1.90;1.80;;;27.80;51.80;;;;;;5113960;27;20621;-68
2023/06/07 11:42:13;;;;;;;1.97;1.73;;;27.90;51.60;;;;;;5098999;27;20709;-69
2023/06/07 11:44:44;;;;;;;1.70;1.60;;;28.40;51.60;;;;;;5103427;27;20738;-69
2023/06/07 11:47:11;;;;;;;2.20;2.00;;;28.90;51.10;;;;;;5117813;27;20665;-69
2023/06/07 11:49:41;;;;;;;1.90;1.80;;;29.20;50.30;;;;;;5094852;27;21030;-69
2023/06/07 11:52:09;;;;;;;1.63;1.53;;;29.70;49.80;;;;;;5115487;27;21006;-69
2023/06/07 11:54:42;;;;;;;1.90;1.80;;;30.00;49.20;;;;;;5116630;27;20617;-69
2023/06/07 11:57:09;;;;;;;3.93;2.40;;;30.30;49.60;;;;;;5111405;27;20686;-69
2023/06/07 11:59:36;;;;;;;2.00;1.90;;;30.80;48.20;;;;;;5098937;27;21026;-69
2023/06/07 12:02:05;;;;;;;1.87;1.77;;;31.40;47.90;;;;;;5119853;27;20738;-69
2023/06/07 12:04:35;;;;;;;1.70;1.60;;;32.00;46.50;;;;;;5116952;27;20725;-70
2023/06/07 12:07:22;;;;;;;2.07;1.87;;;32.20;43.90;;;;;;5102618;27;20672;-69
2023/06/07 12:09:52;;;;;;;2.00;1.90;;;31.90;43.20;;;;;;5101278;27;20612;-69
2023/06/07 12:12:19;;;;;;;1.93;1.83;;;32.70;43.60;;;;;;5117795;27;20678;-68
2023/06/07 12:14:59;;;;;;;1.90;1.80;;;33.40;43.20;;;;;;5117400;27;20600;-67
2023/06/07 12:17:29;;;;;;;2.00;1.90;;;33.70;43.10;;;;;;5111938;27;20666;-68
2023/06/07 12:20:07;;;;;;;2.10;1.97;;;33.90;42.80;;;;;;5107081;27;20616;-68
2023/06/07 12:22:34;;;;;;;1.97;1.87;;;34.00;42.50;;;;;;5113000;27;20532;-68
2023/06/07 12:25:07;;;;;;;1.60;1.50;;;33.70;42.70;;;;;;5112544;27;20281;-68
2023/06/07 12:27:37;;;;;;;2.20;2.10;;;34.40;43.70;;;;;;5115876;27;20195;-68
2023/06/07 12:30:06;;;;;;;1.90;1.80;;;34.50;41.70;;;;;;5113587;27;20546;-68
2023/06/07 12:32:34;;;;;;;2.20;2.10;;;34.50;43.00;;;;;;5108738;27;20257;-68
2023/06/07 12:35:02;;;;;;;1.60;1.50;;;33.60;42.90;;;;;;5107875;27;20194;-68
2023/06/07 12:37:29;;;;;;;1.90;1.80;;;33.90;42.30;;;;;;5103601;27;20569;-69
2023/06/07 12:39:58;;;;;;;1.67;1.57;;;34.20;41.10;;;;;;5106003;27;20221;-68
2023/06/07 12:42:25;;;;;;;1.60;1.50;;;34.60;40.40;;;;;;5113505;27;20266;-68
2023/06/07 12:44:54;;;;;;;1.93;1.83;;;33.90;41.80;;;;;;5111785;27;20208;-69
2023/06/07 12:47:21;;;;;;;1.80;1.70;;;34.20;40.80;;;;;;5114877;27;20237;-68
2023/06/07 12:49:49;;;;;;;1.33;1.33;;;34.80;40.60;;;;;;5103432;28;20206;-68
2023/06/07 12:52:16;;;;;;;2.15;2.05;;;35.10;40.70;;;;;;5116675;27;20246;-68
2023/06/07 12:54:43;;;;;;;1.40;1.30;;;34.10;40.40;;;;;;5110400;27;20669;-68
2023/06/07 12:57:10;;;;;;;1.70;1.60;;;34.30;40.90;;;;;;5115651;27;20261;-68